createdAt,value
2023-04-18T00:00:25.456Z,102370.16
2023-04-18T00:02:55.146Z,102371.13
2023-04-18T00:05:23.502Z,102369.88
2023-04-18T00:07:52.821Z,102360.59
2023-04-18T00:10:20.759Z,102365.38
2023-04-18T00:12:50.007Z,102357.09
2023-04-18T00:15:18.519Z,102357.56
2023-04-18T00:17:48.230Z,102345.66
2023-04-18T00:20:16.272Z,102338.75
2023-04-18T00:22:46.726Z,102345.56
2023-04-18T00:25:14.745Z,102340.41
2023-04-18T00:27:42.986Z,102334.44
2023-04-18T00:30:13.297Z,102337.09
2023-04-18T00:32:41.351Z,102336.22
2023-04-18T00:35:09.972Z,102337.75
2023-04-18T00:37:38.290Z,102330.09
2023-04-18T00:40:07.434Z,102326.00
2023-04-18T00:42:35.442Z,102328.22
2023-04-18T00:45:03.380Z,102325.59
2023-04-18T00:47:32.801Z,102316.91
2023-04-18T00:50:00.902Z,102326.09
2023-04-18T00:52:29.090Z,102324.41
2023-04-18T00:54:57.407Z,102319.19
2023-04-18T00:57:25.792Z,102324.06
2023-04-18T00:59:53.753Z,102318.94
2023-04-18T01:02:22.327Z,102326.53
2023-04-18T01:04:52.210Z,102323.19
2023-04-18T01:07:20.267Z,102328.97
2023-04-18T01:09:48.458Z,102327.19
2023-04-18T01:12:16.653Z,102331.38
2023-04-18T01:19:06.206Z,102334.59
2023-04-18T01:21:37.355Z,102340.91
2023-04-18T01:24:11.367Z,102341.91
2023-04-18T01:26:43.662Z,102352.09
2023-04-18T01:29:12.029Z,102352.13
2023-04-18T01:31:40.633Z,102360.56
2023-04-18T01:34:09.257Z,102357.94
2023-04-18T01:36:38.612Z,102357.41
2023-04-18T01:39:06.750Z,102367.03
2023-04-18T01:41:36.571Z,102375.34
2023-04-18T01:44:04.908Z,102375.28
2023-04-18T01:46:32.825Z,102377.56
2023-04-18T01:49:02.547Z,102385.81
2023-04-18T01:51:31.414Z,102392.28
2023-04-18T01:53:59.416Z,102396.63
2023-04-18T01:56:27.373Z,102399.19
2023-04-18T01:58:56.744Z,102405.94
2023-04-18T02:01:24.779Z,102402.81
2023-04-18T02:03:53.104Z,102407.84
2023-04-18T02:06:21.340Z,102417.00
2023-04-18T02:08:49.260Z,102420.41
2023-04-18T02:11:17.195Z,102417.88
2023-04-18T02:13:45.153Z,102424.63
2023-04-18T02:16:14.868Z,102420.53
2023-04-18T02:18:44.828Z,102411.34
2023-04-18T02:21:14.846Z,102420.50
2023-04-18T02:23:42.876Z,102430.03
2023-04-18T02:26:10.828Z,102430.84
2023-04-18T02:28:39.210Z,102436.94
2023-04-18T02:31:14.429Z,102456.47
2023-04-18T02:33:48.424Z,102458.41
2023-04-18T02:36:16.941Z,102471.28
2023-04-18T02:38:45.583Z,102472.78
2023-04-18T02:41:17.433Z,102480.38
2023-04-18T02:43:48.236Z,102485.16
2023-04-18T02:46:18.066Z,102485.28
2023-04-18T02:48:50.215Z,102492.50
2023-04-18T02:51:20.620Z,102497.66
2023-04-18T02:53:49.348Z,102494.31
2023-04-18T02:56:18.158Z,102499.47
2023-04-18T02:59:05.076Z,102501.91
2023-04-18T03:01:59.700Z,102512.09
2023-04-18T03:04:29.501Z,102516.69
2023-04-18T03:07:00.953Z,102511.63
2023-04-18T03:09:32.234Z,102513.59
2023-04-18T03:12:06.207Z,102514.88
2023-04-18T03:14:36.100Z,102520.75
2023-04-18T03:17:04.329Z,102521.78
2023-04-18T03:19:39.710Z,102517.63
2023-04-18T03:22:11.266Z,102528.22
2023-04-18T03:24:46.250Z,102533.16
2023-04-18T03:27:15.901Z,102542.84
2023-04-18T03:29:46.076Z,102541.88
2023-04-18T03:32:14.821Z,102542.00
2023-04-18T03:34:44.414Z,102544.72
2023-04-18T03:37:12.384Z,102546.06
2023-04-18T03:39:45.784Z,102546.94
2023-04-18T03:42:14.136Z,102549.53
2023-04-18T03:44:43.186Z,102544.16
2023-04-18T03:47:11.204Z,102536.00
2023-04-18T03:49:43.919Z,102538.81
2023-04-18T03:52:12.066Z,102550.75
2023-04-18T03:54:40.126Z,102544.25
2023-04-18T03:57:08.046Z,102547.19
2023-04-18T03:59:38.386Z,102549.59
2023-04-18T04:02:07.876Z,102553.44
2023-04-18T04:04:36.153Z,102562.50
2023-04-18T04:07:05.624Z,102565.66
2023-04-18T04:09:33.587Z,102567.16
2023-04-18T04:12:03.040Z,102578.19
2023-04-18T04:14:31.209Z,102581.81
2023-04-18T04:16:59.218Z,102597.19
2023-04-18T04:19:27.183Z,102593.81
2023-04-18T04:22:07.912Z,102600.97
2023-04-18T04:24:38.470Z,102600.72
2023-04-18T04:27:08.200Z,102606.41
2023-04-18T04:29:39.141Z,102610.47
2023-04-18T04:32:08.451Z,102605.44
2023-04-18T04:34:41.430Z,102608.44
2023-04-18T04:37:14.075Z,102602.34
2023-04-18T04:39:53.336Z,102607.41
2023-04-18T04:42:59.753Z,102605.81
2023-04-18T04:45:34.135Z,102613.50
2023-04-18T04:48:02.294Z,102607.03
2023-04-18T04:50:30.311Z,102614.94
2023-04-18T04:52:59.579Z,102616.28
2023-04-18T04:55:27.533Z,102615.81
2023-04-18T04:57:55.841Z,102618.91
2023-04-18T05:00:47.255Z,102615.13
2023-04-18T05:03:16.066Z,102623.59
2023-04-18T05:05:44.353Z,102622.94
2023-04-18T05:08:13.717Z,102618.31
2023-04-18T05:10:43.234Z,102628.84
2023-04-18T05:13:13.575Z,102623.38
2023-04-18T05:15:41.748Z,102635.56
2023-04-18T05:18:09.726Z,102628.72
2023-04-18T05:20:37.829Z,102628.34
2023-04-18T05:23:05.712Z,102633.94
2023-04-18T05:25:35.178Z,102647.22
2023-04-18T05:28:04.670Z,102665.88
2023-04-18T05:30:32.755Z,102661.84
2023-04-18T05:33:01.089Z,102675.25
2023-04-18T05:35:29.048Z,102675.06
2023-04-18T05:37:57.010Z,102677.75
2023-04-18T05:40:25.222Z,102679.34
2023-04-18T05:42:54.643Z,102681.41
2023-04-18T05:45:22.812Z,102675.50
2023-04-18T05:47:51.230Z,102677.75
2023-04-18T05:50:19.184Z,102678.81
2023-04-18T05:52:47.309Z,102691.88
2023-04-18T05:55:15.475Z,102690.44
2023-04-18T05:57:43.661Z,102707.13
2023-04-18T06:00:14.593Z,102719.19
2023-04-18T06:02:42.769Z,102725.88
2023-04-18T06:05:11.501Z,102730.31
2023-04-18T06:07:40.063Z,102738.84
2023-04-18T06:10:13.435Z,102747.31
2023-04-18T06:12:41.663Z,102735.13
2023-04-18T06:15:11.374Z,102737.69
2023-04-18T06:17:40.786Z,102724.91
2023-04-18T06:20:10.319Z,102723.53
2023-04-18T06:22:38.422Z,102728.69
2023-04-18T06:25:08.867Z,102727.91
2023-04-18T06:27:37.168Z,102731.75
2023-04-18T06:30:07.063Z,102727.59
2023-04-18T06:32:35.365Z,102715.06
2023-04-18T06:35:05.300Z,102711.56
2023-04-18T06:37:33.402Z,102720.63
2023-04-18T06:40:01.357Z,102730.22
2023-04-18T06:42:29.461Z,102729.56
2023-04-18T06:44:57.396Z,102735.59
2023-04-18T06:47:25.655Z,102730.72
2023-04-18T06:49:53.683Z,102731.81
2023-04-18T06:52:23.010Z,102743.81
2023-04-18T06:54:50.987Z,102753.28
2023-04-18T06:57:19.024Z,102753.28
2023-04-18T06:59:46.974Z,102754.38
2023-04-18T07:02:15.560Z,102757.66
2023-04-18T07:04:43.664Z,102753.41
2023-04-18T07:07:11.662Z,102757.03
2023-04-18T07:09:40.989Z,102755.66
2023-04-18T07:12:09.102Z,102761.66
2023-04-18T07:14:37.053Z,102758.16
2023-04-18T07:17:05.229Z,102759.13
2023-04-18T07:19:33.293Z,102759.13
2023-04-18T07:22:01.557Z,102766.09
2023-04-18T07:24:29.910Z,102764.72
2023-04-18T07:26:59.356Z,102777.22
2023-04-18T07:29:27.406Z,102785.72
2023-04-18T07:31:55.560Z,102789.69
2023-04-18T07:34:23.615Z,102797.53
2023-04-18T07:36:51.635Z,102805.44
2023-04-18T07:39:19.633Z,102808.75
2023-04-18T07:41:47.547Z,102805.38
2023-04-18T07:44:16.973Z,102814.25
2023-04-18T07:46:45.150Z,102818.69
2023-04-18T07:49:13.439Z,102829.81
2023-04-18T07:51:41.730Z,102834.66
2023-04-18T07:54:11.125Z,102834.06
2023-04-18T07:56:39.104Z,102836.44
2023-04-18T07:59:06.977Z,102839.25
2023-04-18T08:01:36.544Z,102835.25
2023-04-18T08:04:05.070Z,102846.81
2023-04-18T08:06:34.704Z,102846.13
2023-04-18T08:09:05.621Z,102848.25
2023-04-18T08:11:33.870Z,102864.78
2023-04-18T08:14:02.361Z,102860.94
2023-04-18T08:16:30.848Z,102863.47
2023-04-18T08:19:00.280Z,102862.41
2023-04-18T08:21:28.338Z,102874.81
2023-04-18T08:23:57.002Z,102872.75
2023-04-18T08:26:25.040Z,102864.59
2023-04-18T08:28:53.078Z,102866.44
2023-04-18T08:31:21.359Z,102874.31
2023-04-18T08:33:49.694Z,102869.13
2023-04-18T08:36:19.195Z,102865.75
2023-04-18T08:38:47.619Z,102865.22
2023-04-18T08:41:17.600Z,102874.19
2023-04-18T08:43:48.990Z,102871.19
2023-04-18T08:46:17.468Z,102883.44
2023-04-18T08:48:47.844Z,102880.78
2023-04-18T08:51:16.493Z,102878.06
2023-04-18T08:53:45.907Z,102899.34
2023-04-18T08:56:14.759Z,102898.59
2023-04-18T08:58:45.283Z,102913.19
2023-04-18T09:01:15.106Z,102913.03
2023-04-18T09:03:44.257Z,102917.41
2023-04-18T09:06:14.243Z,102917.09
2023-04-18T09:08:43.616Z,102909.38
2023-04-18T09:11:28.804Z,102917.88
2023-04-18T09:13:59.022Z,102912.50
2023-04-18T09:16:47.233Z,102917.56
2023-04-18T09:19:18.117Z,102919.50
2023-04-18T09:21:47.312Z,102919.59
2023-04-18T09:24:23.989Z,102918.72
2023-04-18T09:26:55.895Z,102922.28
2023-04-18T09:29:24.878Z,102923.34
2023-04-18T09:31:57.434Z,102932.66
2023-04-18T09:34:26.417Z,102922.84
2023-04-18T09:37:08.818Z,102917.84
2023-04-18T09:39:38.873Z,102915.72
2023-04-18T09:42:10.872Z,102920.75
2023-04-18T09:44:39.551Z,102917.72
2023-04-18T09:47:08.440Z,102921.50
2023-04-18T09:49:36.511Z,102931.00
2023-04-18T09:52:07.814Z,102931.63
2023-04-18T09:54:39.809Z,102938.75
2023-04-18T09:57:12.951Z,102938.69
2023-04-18T09:59:44.298Z,102943.22
2023-04-18T10:02:16.572Z,102938.75
2023-04-18T10:04:45.423Z,102933.56
2023-04-18T10:07:14.392Z,102938.34
2023-04-18T10:09:44.627Z,102940.91
2023-04-18T10:12:14.405Z,102946.47
2023-04-18T10:14:44.097Z,102943.91
2023-04-18T10:17:12.282Z,102947.44
2023-04-18T10:19:42.043Z,102947.69
2023-04-18T10:22:10.346Z,102956.56
2023-04-18T10:24:53.277Z,102959.09
2023-04-18T10:27:56.399Z,102954.91
2023-04-18T10:30:54.506Z,102960.22
2023-04-18T10:33:31.893Z,102957.41
2023-04-18T10:36:02.434Z,102957.53
2023-04-18T10:38:30.749Z,102962.88
2023-04-18T10:41:18.749Z,102962.94
2023-04-18T10:44:18.399Z,102960.41
2023-04-18T10:47:22.188Z,102950.91
2023-04-18T10:49:57.952Z,102950.91
2023-04-18T10:52:26.399Z,102948.31
2023-04-18T10:54:59.499Z,102954.38
2023-04-18T10:57:38.964Z,102957.00
2023-04-18T11:00:11.923Z,102963.97
2023-04-18T11:02:40.491Z,102961.34
2023-04-18T11:05:09.899Z,102955.25
2023-04-18T11:07:38.984Z,102957.88
2023-04-18T11:10:08.778Z,102966.59
2023-04-18T11:12:38.359Z,102966.59
2023-04-18T11:15:13.139Z,102955.13
2023-04-18T11:17:41.457Z,102957.53
2023-04-18T11:20:11.508Z,102960.09
2023-04-18T11:22:50.658Z,102972.59
2023-04-18T11:25:19.768Z,102954.41
2023-04-18T11:27:51.878Z,102957.75
2023-04-18T11:30:21.522Z,102954.09
2023-04-18T11:32:51.748Z,102961.19
2023-04-18T11:35:20.854Z,102955.16
2023-04-18T11:37:50.287Z,102957.81
2023-04-18T11:40:18.655Z,102958.31
2023-04-18T11:42:46.772Z,102953.97
2023-04-18T11:45:16.290Z,102950.53
2023-04-18T11:47:47.429Z,102948.69
2023-04-18T11:50:15.544Z,102940.81
2023-04-18T11:52:43.650Z,102941.84
2023-04-18T11:55:17.751Z,102954.19
2023-04-18T11:57:53.201Z,102949.16
2023-04-18T12:00:30.878Z,102943.91
2023-04-18T12:03:01.895Z,102936.09
2023-04-18T12:05:31.911Z,102947.44
2023-04-18T12:08:07.095Z,102948.28
2023-04-18T12:10:35.977Z,102949.84
2023-04-18T12:13:08.241Z,102934.75
2023-04-18T12:15:39.423Z,102941.78
2023-04-18T12:18:09.506Z,102933.47
2023-04-18T12:20:38.941Z,102940.38
2023-04-18T12:23:08.004Z,102933.78
2023-04-18T12:25:36.499Z,102933.25
2023-04-18T12:28:05.692Z,102943.09
2023-04-18T12:30:37.571Z,102935.94
2023-04-18T12:33:09.314Z,102935.09
2023-04-18T12:35:37.286Z,102932.28
2023-04-18T12:38:06.058Z,102939.41
2023-04-18T12:40:34.170Z,102940.47
2023-04-18T12:43:03.683Z,102940.44
2023-04-18T12:45:32.209Z,102942.19
2023-04-18T12:48:00.465Z,102937.00
2023-04-18T12:50:30.017Z,102937.84
2023-04-18T12:53:00.446Z,102940.44
2023-04-18T12:55:28.928Z,102936.97
2023-04-18T12:57:58.141Z,102936.09
2023-04-18T13:00:27.940Z,102928.28
2023-04-18T13:02:56.499Z,102928.28
2023-04-18T13:05:27.668Z,102930.88
2023-04-18T13:08:15.204Z,102937.88
2023-04-18T13:10:44.744Z,102929.16
2023-04-18T13:13:12.946Z,102930.00
2023-04-18T13:15:41.293Z,102930.00
2023-04-18T13:18:09.505Z,102938.66
2023-04-18T13:20:37.753Z,102939.53
2023-04-18T13:23:07.136Z,102940.38
2023-04-18T13:25:35.186Z,102944.81
2023-04-18T13:28:03.255Z,102931.59
2023-04-18T13:30:32.079Z,102915.81
2023-04-18T13:33:00.138Z,102938.72
2023-04-18T13:35:28.272Z,102937.84
2023-04-18T13:37:56.358Z,102943.09
2023-04-18T13:40:26.613Z,102935.25
2023-04-18T13:42:54.741Z,102931.78
2023-04-18T13:45:22.790Z,102940.47
2023-04-18T13:47:50.937Z,102925.66
2023-04-18T13:50:19.105Z,102936.09
2023-04-18T13:52:49.312Z,102931.75
2023-04-18T13:55:18.513Z,102933.34
2023-04-18T13:57:47.915Z,102929.91
2023-04-18T14:00:17.038Z,102936.97
2023-04-18T14:02:45.383Z,102939.59
2023-04-18T14:05:13.543Z,102937.00
2023-04-18T14:07:41.553Z,102941.34
2023-04-18T14:10:10.492Z,102943.06
2023-04-18T14:12:40.079Z,102943.06
2023-04-18T14:15:11.097Z,102942.16
2023-04-18T14:17:39.202Z,102942.13
2023-04-18T14:20:08.591Z,102942.22
2023-04-18T14:22:36.770Z,102939.59
2023-04-18T14:25:05.332Z,102940.25
2023-04-18T14:27:33.369Z,102927.22
2023-04-18T14:30:01.399Z,102940.47
2023-04-18T14:32:30.869Z,102944.81
2023-04-18T14:34:59.561Z,102946.53
2023-04-18T14:37:28.309Z,102946.53
2023-04-18T14:39:56.634Z,102950.84
2023-04-18T14:42:24.650Z,102952.53
2023-04-18T14:44:53.315Z,102956.91
2023-04-18T14:47:22.032Z,102944.75
2023-04-18T14:49:52.504Z,102928.59
2023-04-18T14:52:20.595Z,102931.00
2023-04-18T14:54:48.930Z,102929.63
2023-04-18T14:57:16.982Z,102929.81
2023-04-18T14:59:45.137Z,102929.94
2023-04-18T15:02:13.309Z,102935.25
2023-04-18T15:04:41.546Z,102943.06
2023-04-18T15:07:11.041Z,102933.34
2023-04-18T15:09:39.459Z,102923.28
2023-04-18T15:12:08.110Z,102929.53
2023-04-18T15:14:36.936Z,102923.22
2023-04-18T15:17:08.044Z,102937.66
2023-04-18T15:19:36.160Z,102920.28
2023-04-18T15:22:04.270Z,102915.81
2023-04-18T15:24:33.715Z,102905.69
2023-04-18T15:27:01.976Z,102911.19
2023-04-18T15:29:30.190Z,102923.59
2023-04-18T15:31:58.407Z,102946.38
2023-04-18T15:34:26.885Z,102948.16
2023-04-18T15:36:54.994Z,102940.16
2023-04-18T15:39:24.118Z,102947.09
2023-04-18T15:41:55.510Z,102941.00
2023-04-18T15:44:23.641Z,102942.75
2023-04-18T15:46:51.961Z,102935.91
2023-04-18T15:49:20.086Z,102946.41
2023-04-18T15:51:48.191Z,102939.47
2023-04-18T15:54:16.458Z,102940.16
2023-04-18T15:56:44.823Z,102935.50
2023-04-18T15:59:14.722Z,102934.34
2023-04-18T16:01:44.554Z,102926.75
2023-04-18T16:04:14.419Z,102915.63
2023-04-18T16:06:42.680Z,102918.31
2023-04-18T16:09:10.831Z,102915.78
2023-04-18T16:11:38.863Z,102907.06
2023-04-18T16:14:06.868Z,102914.28
2023-04-18T16:16:36.355Z,102917.72
2023-04-18T16:19:05.546Z,102914.06
2023-04-18T16:21:33.764Z,102926.97
2023-04-18T16:24:02.688Z,102930.34
2023-04-18T16:26:30.768Z,102936.34
2023-04-18T16:28:58.851Z,102916.63
2023-04-18T16:31:26.955Z,102900.47
2023-04-18T16:33:56.540Z,102914.28
2023-04-18T16:36:24.729Z,102914.81
2023-04-18T16:38:52.862Z,102901.91
2023-04-18T16:41:21.009Z,102893.28
2023-04-18T16:43:48.963Z,102906.94
2023-04-18T16:46:17.121Z,102896.06
2023-04-18T16:48:45.685Z,102911.31
2023-04-18T16:51:15.130Z,102909.91
2023-04-18T16:53:43.166Z,102918.75
2023-04-18T16:56:11.318Z,102923.50
2023-04-18T16:58:39.352Z,102916.31
2023-04-18T17:01:08.318Z,102930.44
2023-04-18T17:03:36.848Z,102932.16
2023-04-18T17:06:05.895Z,102930.53
2023-04-18T17:08:36.028Z,102930.56
2023-04-18T17:11:04.312Z,102948.16
2023-04-18T17:13:32.574Z,102943.94
2023-04-18T17:16:00.886Z,102943.03
2023-04-18T17:18:29.488Z,102943.06
2023-04-18T17:20:57.596Z,102953.53
2023-04-18T17:23:25.610Z,102961.28
2023-04-18T17:25:55.039Z,102968.19
2023-04-18T17:28:25.068Z,102962.94
2023-04-18T17:30:53.068Z,102963.78
2023-04-18T17:33:21.088Z,102958.53
2023-04-18T17:35:49.284Z,102961.91
2023-04-18T17:38:17.386Z,102961.03
2023-04-18T17:40:45.450Z,102969.59
2023-04-18T17:43:14.922Z,102962.59
2023-04-18T17:45:44.121Z,102965.19
2023-04-18T17:48:12.294Z,102976.41
2023-04-18T17:50:42.463Z,102966.84
2023-04-18T17:53:12.459Z,102970.97
2023-04-18T17:55:41.727Z,102982.94
2023-04-18T17:58:09.979Z,102972.53
2023-04-18T18:00:39.465Z,102981.06
2023-04-18T18:03:09.312Z,102984.53
2023-04-18T18:05:37.432Z,102994.81
2023-04-18T18:08:05.829Z,102999.84
2023-04-18T18:10:34.464Z,102988.44
2023-04-18T18:13:02.449Z,102984.81
2023-04-18T18:15:31.054Z,102986.41
2023-04-18T18:18:01.868Z,102983.56
2023-04-18T18:20:30.938Z,102992.09
2023-04-18T18:22:59.753Z,103004.94
2023-04-18T18:25:28.618Z,102988.31
2023-04-18T18:27:56.705Z,103006.28
2023-04-18T18:30:25.026Z,103001.03
2023-04-18T18:32:54.303Z,103000.91
2023-04-18T18:35:23.981Z,103007.84
2023-04-18T18:37:52.021Z,103021.38
2023-04-18T18:40:20.500Z,103022.91
2023-04-18T18:42:51.255Z,103038.38
2023-04-18T18:45:21.162Z,103038.09
2023-04-18T18:47:49.636Z,103047.44
2023-04-18T18:50:18.202Z,103047.28
2023-04-18T18:52:48.450Z,103053.22
2023-04-18T18:55:18.258Z,103050.38
2023-04-18T18:57:46.491Z,103054.72
2023-04-18T19:00:15.190Z,103056.31
2023-04-18T19:02:43.499Z,103057.94
2023-04-18T19:05:12.858Z,103051.81
2023-04-18T19:07:42.418Z,103058.50
2023-04-18T19:10:12.277Z,103054.25
2023-04-18T19:12:40.377Z,103054.91
2023-04-18T19:15:09.635Z,103062.59
2023-04-18T19:17:37.745Z,103063.28
2023-04-18T19:20:06.790Z,103058.84
2023-04-18T19:22:35.009Z,103062.16
2023-04-18T19:25:04.478Z,103064.47
2023-04-18T19:27:33.824Z,103062.53
2023-04-18T19:30:01.840Z,103063.38
2023-04-18T19:32:32.687Z,103062.53
2023-04-18T19:35:00.846Z,103081.13
2023-04-18T19:37:28.925Z,103067.59
2023-04-18T19:39:57.055Z,103072.75
2023-04-18T19:42:25.114Z,103074.38
2023-04-18T19:44:56.415Z,103086.03
2023-04-18T19:47:25.111Z,103081.44
2023-04-18T19:49:53.191Z,103076.34
2023-04-18T19:52:21.282Z,103076.09
2023-04-18T19:54:49.415Z,103084.69
2023-04-18T19:57:17.478Z,103075.84
2023-04-18T19:59:45.583Z,103093.88
2023-04-18T20:02:15.111Z,103083.25
2023-04-18T20:04:44.207Z,103082.91
2023-04-18T20:07:12.405Z,103082.34
2023-04-18T20:09:42.592Z,103086.41
2023-04-18T20:12:10.631Z,103084.56
2023-04-18T20:14:38.656Z,103091.19
2023-04-18T20:17:06.706Z,103089.91
2023-04-18T20:19:36.417Z,103094.28
2023-04-18T20:22:04.725Z,103100.44
2023-04-18T20:24:34.603Z,103103.19
2023-04-18T20:27:03.115Z,103095.22
2023-04-18T20:29:31.305Z,103099.56
2023-04-18T20:31:59.364Z,103099.06
2023-04-18T20:34:27.422Z,103098.50
2023-04-18T20:36:57.913Z,103102.53
2023-04-18T20:39:26.398Z,103099.97
2023-04-18T20:41:57.585Z,103099.91
2023-04-18T20:44:28.152Z,103092.97
2023-04-18T20:46:56.175Z,103092.84
2023-04-18T20:49:24.381Z,103102.25
2023-04-18T20:51:52.467Z,103087.50
2023-04-18T20:54:21.897Z,103101.28
2023-04-18T20:56:49.999Z,103096.94
2023-04-18T20:59:18.071Z,103096.94
2023-04-18T21:01:46.971Z,103101.28
2023-04-18T21:04:15.482Z,103096.06
2023-04-18T21:06:43.967Z,103093.41
2023-04-18T21:09:12.016Z,103100.09
2023-04-18T21:11:41.345Z,103107.16
2023-04-18T21:14:09.296Z,103099.16
2023-04-18T21:16:39.530Z,103100.78
2023-04-18T21:19:08.515Z,103097.94
2023-04-18T21:21:36.582Z,103097.25
2023-04-18T21:24:05.684Z,103095.56
2023-04-18T21:26:33.675Z,103094.47
2023-04-18T21:29:04.771Z,103099.66
2023-04-18T21:31:33.918Z,103084.22
2023-04-18T21:34:05.287Z,103092.03
2023-04-18T21:36:33.675Z,103087.47
2023-04-18T21:39:02.210Z,103092.81
2023-04-18T21:41:30.234Z,103089.22
2023-04-18T21:43:58.194Z,103090.75
2023-04-18T21:46:27.625Z,103090.34
2023-04-18T21:48:55.658Z,103098.53
2023-04-18T21:51:23.867Z,103091.47
2023-04-18T21:53:52.024Z,103083.72
2023-04-18T21:56:20.315Z,103092.66
2023-04-18T21:58:48.311Z,103093.16
2023-04-18T22:01:16.476Z,103081.81
2023-04-18T22:03:46.335Z,103081.13
2023-04-18T22:06:14.494Z,103083.38
2023-04-18T22:08:43.743Z,103090.03
2023-04-18T22:11:13.646Z,103086.28
2023-04-18T22:13:44.940Z,103085.41
2023-04-18T22:16:13.389Z,103088.59
2023-04-18T22:18:41.353Z,103078.16
2023-04-18T22:21:12.254Z,103085.50
2023-04-18T22:23:40.475Z,103086.38
2023-04-18T22:26:08.487Z,103086.19
2023-04-18T22:28:36.654Z,103083.53
2023-04-18T22:31:04.970Z,103085.94
2023-04-18T22:33:33.110Z,103087.06
2023-04-18T22:36:01.913Z,103087.81
2023-04-18T22:38:31.409Z,103082.25
2023-04-18T22:41:00.207Z,103082.13
2023-04-18T22:43:28.279Z,103077.63
2023-04-18T22:45:56.304Z,103073.78
2023-04-18T22:48:24.356Z,103073.50
2023-04-18T22:50:52.326Z,103071.72
2023-04-18T22:53:20.531Z,103088.41
2023-04-18T22:55:49.939Z,103074.84
2023-04-18T22:58:18.985Z,103072.63
2023-04-18T23:00:46.914Z,103069.22
2023-04-18T23:03:15.120Z,103072.56
2023-04-18T23:05:43.334Z,103064.59
2023-04-18T23:08:11.970Z,103070.63
2023-04-18T23:10:40.088Z,103063.84
2023-04-18T23:13:09.604Z,103065.84
2023-04-18T23:15:37.694Z,103064.66
2023-04-18T23:18:05.995Z,103063.50
2023-04-18T23:20:34.069Z,103055.69
2023-04-18T23:23:02.266Z,103051.44
2023-04-18T23:25:32.540Z,103042.75
2023-04-18T23:28:00.808Z,103044.50
2023-04-18T23:30:30.268Z,103049.28
2023-04-18T23:32:58.411Z,103055.34
2023-04-18T23:35:26.564Z,103049.28
2023-04-18T23:37:54.525Z,103046.72
2023-04-18T23:40:23.138Z,103036.75
2023-04-18T23:42:51.188Z,103041.78
2023-04-18T23:45:19.298Z,103041.69
2023-04-18T23:47:48.785Z,103033.16
2023-04-18T23:50:17.203Z,103027.69
2023-04-18T23:52:45.191Z,103023.06
2023-04-18T23:55:14.550Z,103020.88
2023-04-18T23:57:42.622Z,103012.00
